sensor_id;sensor_type;location;lat;lon;timestamp;pressure;altitude;pressure_sealevel;temperature;humidity
77749;BME280;66938;52.084;5.228;2023-04-01T00:01:25;99167.0;;;11.11;83.4
77749;BME280;66938;52.084;5.228;2023-04-01T00:04:38;99176.0;;;11.02;83.48
77749;BME280;66938;52.084;5.228;2023-04-01T00:06:16;99173.0;;;11.13;83.19
77749;BME280;66938;52.084;5.228;2023-04-01T00:07:53;99175.0;;;11.04;83.32
77749;BME280;66938;52.084;5.228;2023-04-01T00:11:05;99176.0;;;11.09;83.17
77749;BME280;66938;52.084;5.228;2023-04-01T00:12:42;99182.0;;;11.08;83.0
77749;BME280;66938;52.084;5.228;2023-04-01T00:14:19;99180.0;;;10.99;83.11
77749;BME280;66938;52.084;5.228;2023-04-01T00:15:55;99180.0;;;10.94;83.2
77749;BME280;66938;52.084;5.228;2023-04-01T00:19:08;99184.0;;;10.97;83.15
77749;BME280;66938;52.084;5.228;2023-04-01T00:20:45;99182.0;;;11.07;82.89
77749;BME280;66938;52.084;5.228;2023-04-01T00:22:22;99184.0;;;11.05;82.77
77749;BME280;66938;52.084;5.228;2023-04-01T00:25:35;99184.0;;;11.12;82.66
77749;BME280;66938;52.084;5.228;2023-04-01T00:27:12;99182.0;;;11.06;82.74
77749;BME280;66938;52.084;5.228;2023-04-01T00:28:48;99185.0;;;11.04;82.63
77749;BME280;66938;52.084;5.228;2023-04-01T00:32:01;99187.0;;;11.04;82.31
77749;BME280;66938;52.084;5.228;2023-04-01T00:33:37;99186.0;;;11.0;82.27
77749;BME280;66938;52.084;5.228;2023-04-01T00:35:15;99184.0;;;11.0;82.15
77749;BME280;66938;52.084;5.228;2023-04-01T00:36:52;99187.0;;;10.93;82.1
77749;BME280;66938;52.084;5.228;2023-04-01T00:40:06;99186.0;;;10.85;82.26
77749;BME280;66938;52.084;5.228;2023-04-01T00:42:01;99183.0;;;10.83;82.28
77749;BME280;66938;52.084;5.228;2023-04-01T00:43:39;99186.0;;;10.83;82.31
77749;BME280;66938;52.084;5.228;2023-04-01T00:45:27;99183.0;;;10.83;82.52
77749;BME280;66938;52.084;5.228;2023-04-01T00:48:43;99187.0;;;10.79;82.57
77749;BME280;66938;52.084;5.228;2023-04-01T00:50:22;99188.0;;;10.84;82.44
77749;BME280;66938;52.084;5.228;2023-04-01T00:52:02;99187.0;;;10.8;82.63
77749;BME280;66938;52.084;5.228;2023-04-01T00:53:43;99196.0;;;10.8;82.7
77749;BME280;66938;52.084;5.228;2023-04-01T00:57:01;99195.0;;;10.79;82.74
77749;BME280;66938;52.084;5.228;2023-04-01T00:58:43;99189.0;;;10.75;82.96
77749;BME280;66938;52.084;5.228;2023-04-01T01:00:20;99197.0;;;10.82;83.04
77749;BME280;66938;52.084;5.228;2023-04-01T01:01:56;99197.0;;;10.78;83.12
77749;BME280;66938;52.084;5.228;2023-04-01T01:05:11;99200.0;;;10.78;83.22
77749;BME280;66938;52.084;5.228;2023-04-01T01:06:54;99196.0;;;10.77;83.2
77749;BME280;66938;52.084;5.228;2023-04-01T01:08:47;99198.0;;;10.73;83.12
77749;BME280;66938;52.084;5.228;2023-04-01T01:10:39;99201.0;;;10.73;83.09
77749;BME280;66938;52.084;5.228;2023-04-01T01:14:00;99200.0;;;10.64;83.3
77749;BME280;66938;52.084;5.228;2023-04-01T01:15:44;99205.0;;;10.53;83.46
77749;BME280;66938;52.084;5.228;2023-04-01T01:17:32;99206.0;;;10.55;83.65
77749;BME280;66938;52.084;5.228;2023-04-01T01:19:32;99217.0;;;10.62;83.45
77749;BME280;66938;52.084;5.228;2023-04-01T01:21:59;99211.0;;;10.53;83.78
77749;BME280;66938;52.084;5.228;2023-04-01T01:23:57;99211.0;;;10.51;83.77
77749;BME280;66938;52.084;5.228;2023-04-01T01:26:37;99213.0;;;10.49;83.8
77749;BME280;66938;52.084;5.228;2023-04-01T01:28:47;99210.0;;;10.52;83.48
77749;BME280;66938;52.084;5.228;2023-04-01T01:30:37;99210.0;;;10.45;83.83
77749;BME280;66938;52.084;5.228;2023-04-01T01:32:31;99212.0;;;10.51;83.61
77749;BME280;66938;52.084;5.228;2023-04-01T01:35:20;99206.0;;;10.46;83.71
77749;BME280;66938;52.084;5.228;2023-04-01T01:37:01;99214.0;;;10.55;83.34
77749;BME280;66938;52.084;5.228;2023-04-01T01:38:42;99219.0;;;10.38;83.65
77749;BME280;66938;52.084;5.228;2023-04-01T01:40:19;99217.0;;;10.36;83.7
77749;BME280;66938;52.084;5.228;2023-04-01T01:41:57;99208.0;;;10.25;83.98
77749;BME280;66938;52.084;5.228;2023-04-01T01:45:19;99215.0;;;10.19;84.18
77749;BME280;66938;52.084;5.228;2023-04-01T01:46:58;99219.0;;;10.16;84.18
77749;BME280;66938;52.084;5.228;2023-04-01T01:48:35;99217.0;;;10.15;84.17
77749;BME280;66938;52.084;5.228;2023-04-01T01:50:13;99207.0;;;10.21;83.96
77749;BME280;66938;52.084;5.228;2023-04-01T01:53:28;99218.0;;;10.16;84.26
77749;BME280;66938;52.084;5.228;2023-04-01T01:55:24;99222.0;;;10.11;84.3
77749;BME280;66938;52.084;5.228;2023-04-01T01:57:06;99217.0;;;10.15;84.37
77749;BME280;66938;52.084;5.228;2023-04-01T01:58:44;99214.0;;;10.19;84.13
77749;BME280;66938;52.084;5.228;2023-04-01T02:01:59;99211.0;;;10.19;83.92
77749;BME280;66938;52.084;5.228;2023-04-01T02:03:37;99217.0;;;10.16;84.24
77749;BME280;66938;52.084;5.228;2023-04-01T02:05:17;99222.0;;;10.15;84.24
77749;BME280;66938;52.084;5.228;2023-04-01T02:06:59;99224.0;;;10.16;84.05
77749;BME280;66938;52.084;5.228;2023-04-01T02:10:19;99226.0;;;10.17;83.96
77749;BME280;66938;52.084;5.228;2023-04-01T02:12:01;99230.0;;;10.17;83.98
77749;BME280;66938;52.084;5.228;2023-04-01T02:13:42;99228.0;;;10.15;84.11
77749;BME280;66938;52.084;5.228;2023-04-01T02:15:25;99230.0;;;10.09;84.33
77749;BME280;66938;52.084;5.228;2023-04-01T02:18:45;99231.0;;;10.13;84.15
77749;BME280;66938;52.084;5.228;2023-04-01T02:20:24;99236.0;;;10.14;84.04
77749;BME280;66938;52.084;5.228;2023-04-01T02:22:08;99234.0;;;10.13;84.11
77749;BME280;66938;52.084;5.228;2023-04-01T02:23:46;99236.0;;;10.08;84.29
77749;BME280;66938;52.084;5.228;2023-04-01T02:27:04;99239.0;;;10.11;84.02
77749;BME280;66938;52.084;5.228;2023-04-01T02:28:41;99235.0;;;10.1;84.15
77749;BME280;66938;52.084;5.228;2023-04-01T02:30:19;99234.0;;;10.1;84.13
77749;BME280;66938;52.084;5.228;2023-04-01T02:31:56;99231.0;;;10.03;84.4
77749;BME280;66938;52.084;5.228;2023-04-01T02:35:12;99232.0;;;10.07;84.23
77749;BME280;66938;52.084;5.228;2023-04-01T02:36:50;99236.0;;;10.06;84.3
77749;BME280;66938;52.084;5.228;2023-04-01T02:38:26;99248.0;;;10.02;84.58
77749;BME280;66938;52.084;5.228;2023-04-01T02:41:44;99238.0;;;9.96;84.74
77749;BME280;66938;52.084;5.228;2023-04-01T02:43:21;99236.0;;;10.1;84.36
77749;BME280;66938;52.084;5.228;2023-04-01T02:44:57;99240.0;;;10.05;84.26
77749;BME280;66938;52.084;5.228;2023-04-01T02:46:33;99235.0;;;10.1;84.11
77749;BME280;66938;52.084;5.228;2023-04-01T02:49:45;99244.0;;;10.01;84.41
77749;BME280;66938;52.084;5.228;2023-04-01T02:51:21;99250.0;;;10.13;84.25
77749;BME280;66938;52.084;5.228;2023-04-01T02:52:59;99248.0;;;10.19;84.01
77749;BME280;66938;52.084;5.228;2023-04-01T02:56:12;99245.0;;;10.1;84.17
77749;BME280;66938;52.084;5.228;2023-04-01T02:57:48;99252.0;;;10.17;83.95
77749;BME280;66938;52.084;5.228;2023-04-01T02:59:24;99255.0;;;10.07;84.28
77749;BME280;66938;52.084;5.228;2023-04-01T03:02:37;99258.0;;;10.18;84.03
77749;BME280;66938;52.084;5.228;2023-04-01T03:04:13;99259.0;;;10.24;83.8
77749;BME280;66938;52.084;5.228;2023-04-01T03:05:49;99260.0;;;10.25;83.84
77749;BME280;66938;52.084;5.228;2023-04-01T03:09:02;99261.0;;;10.23;83.86
77749;BME280;66938;52.084;5.228;2023-04-01T03:10:38;99260.0;;;10.23;83.68
77749;BME280;66938;52.084;5.228;2023-04-01T03:12:14;99266.0;;;10.19;83.97
77749;BME280;66938;52.084;5.228;2023-04-01T03:13:50;99268.0;;;10.28;83.74
77749;BME280;66938;52.084;5.228;2023-04-01T03:17:02;99278.0;;;10.37;83.44
77749;BME280;66938;52.084;5.228;2023-04-01T03:18:38;99275.0;;;10.34;83.59
77749;BME280;66938;52.084;5.228;2023-04-01T03:20:15;99280.0;;;10.23;84.02
77749;BME280;66938;52.084;5.228;2023-04-01T03:23:28;99280.0;;;10.28;83.87
77749;BME280;66938;52.084;5.228;2023-04-01T03:25:05;99288.0;;;10.28;83.95
77749;BME280;66938;52.084;5.228;2023-04-01T03:26:42;99289.0;;;10.32;83.86
77749;BME280;66938;52.084;5.228;2023-04-01T03:29:54;99293.0;;;10.39;83.67
77749;BME280;66938;52.084;5.228;2023-04-01T03:31:30;99291.0;;;10.4;83.69
77749;BME280;66938;52.084;5.228;2023-04-01T03:33:07;99294.0;;;10.39;83.73
77749;BME280;66938;52.084;5.228;2023-04-01T03:34:43;99295.0;;;10.38;83.74
77749;BME280;66938;52.084;5.228;2023-04-01T03:37:55;99294.0;;;10.45;83.7
77749;BME280;66938;52.084;5.228;2023-04-01T03:39:31;99298.0;;;10.47;83.52
77749;BME280;66938;52.084;5.228;2023-04-01T03:41:11;99302.0;;;10.51;83.55
77749;BME280;66938;52.084;5.228;2023-04-01T03:44:24;99301.0;;;10.43;83.87
77749;BME280;66938;52.084;5.228;2023-04-01T03:46:01;99305.0;;;10.5;83.75
77749;BME280;66938;52.084;5.228;2023-04-01T03:47:37;99306.0;;;10.44;84.02
77749;BME280;66938;52.084;5.228;2023-04-01T03:50:49;99313.0;;;10.48;83.91
77749;BME280;66938;52.084;5.228;2023-04-01T03:52:25;99314.0;;;10.57;83.74
77749;BME280;66938;52.084;5.228;2023-04-01T03:54:01;99318.0;;;10.63;83.49
77749;BME280;66938;52.084;5.228;2023-04-01T03:55:38;99315.0;;;10.66;83.46
77749;BME280;66938;52.084;5.228;2023-04-01T03:58:51;99314.0;;;10.64;83.65
77749;BME280;66938;52.084;5.228;2023-04-01T04:00:27;99320.0;;;10.62;83.6
77749;BME280;66938;52.084;5.228;2023-04-01T04:02:04;99323.0;;;10.72;83.53
77749;BME280;66938;52.084;5.228;2023-04-01T04:05:16;99323.0;;;10.78;83.34
77749;BME280;66938;52.084;5.228;2023-04-01T04:06:53;99331.0;;;10.79;83.27
77749;BME280;66938;52.084;5.228;2023-04-01T04:08:29;99334.0;;;10.81;83.27
77749;BME280;66938;52.084;5.228;2023-04-01T04:11:43;99334.0;;;10.79;83.41
77749;BME280;66938;52.084;5.228;2023-04-01T04:13:19;99340.0;;;10.79;83.5
77749;BME280;66938;52.084;5.228;2023-04-01T04:14:56;99339.0;;;10.87;83.27
77749;BME280;66938;52.084;5.228;2023-04-01T04:16:34;99346.0;;;10.8;83.4
77749;BME280;66938;52.084;5.228;2023-04-01T04:19:47;99344.0;;;10.86;83.39
77749;BME280;66938;52.084;5.228;2023-04-01T04:21:24;99344.0;;;10.81;83.64
77749;BME280;66938;52.084;5.228;2023-04-01T04:23:00;99350.0;;;10.88;83.52
77749;BME280;66938;52.084;5.228;2023-04-01T04:26:14;99351.0;;;10.85;83.48
77749;BME280;66938;52.084;5.228;2023-04-01T04:27:51;99358.0;;;10.88;83.5
77749;BME280;66938;52.084;5.228;2023-04-01T04:29:27;99357.0;;;10.86;83.44
77749;BME280;66938;52.084;5.228;2023-04-01T04:32:40;99361.0;;;10.88;83.34
77749;BME280;66938;52.084;5.228;2023-04-01T04:35:55;99372.0;;;10.86;83.56
77749;BME280;66938;52.084;5.228;2023-04-01T04:37:31;99381.0;;;10.81;83.67
77749;BME280;66938;52.084;5.228;2023-04-01T04:40:45;99381.0;;;10.82;83.7
77749;BME280;66938;52.084;5.228;2023-04-01T04:42:21;99382.0;;;10.78;83.84
77749;BME280;66938;52.084;5.228;2023-04-01T04:43:57;99390.0;;;10.84;83.7
77749;BME280;66938;52.084;5.228;2023-04-01T04:47:09;99391.0;;;10.8;83.79
77749;BME280;66938;52.084;5.228;2023-04-01T04:48:45;99397.0;;;10.86;83.61
77749;BME280;66938;52.084;5.228;2023-04-01T04:50:22;99399.0;;;10.82;83.64
77749;BME280;66938;52.084;5.228;2023-04-01T04:53:35;99402.0;;;10.83;83.51
77749;BME280;66938;52.084;5.228;2023-04-01T04:55:12;99408.0;;;10.81;83.55
77749;BME280;66938;52.084;5.228;2023-04-01T04:56:50;99411.0;;;10.82;83.45
77749;BME280;66938;52.084;5.228;2023-04-01T04:58:27;99417.0;;;10.86;83.34
77749;BME280;66938;52.084;5.228;2023-04-01T05:01:41;99420.0;;;10.86;83.3
77749;BME280;66938;52.084;5.228;2023-04-01T05:03:17;99426.0;;;10.88;83.37
77749;BME280;66938;52.084;5.228;2023-04-01T05:04:53;99430.0;;;10.85;83.39
77749;BME280;66938;52.084;5.228;2023-04-01T05:08:06;99434.0;;;10.94;83.09
77749;BME280;66938;52.084;5.228;2023-04-01T05:09:42;99434.0;;;10.93;83.1
77749;BME280;66938;52.084;5.228;2023-04-01T05:11:19;99433.0;;;10.97;83.04
77749;BME280;66938;52.084;5.228;2023-04-01T05:14:31;99438.0;;;10.95;82.97
77749;BME280;66938;52.084;5.228;2023-04-01T05:16:08;99444.0;;;10.93;83.13
77749;BME280;66938;52.084;5.228;2023-04-01T05:17:44;99447.0;;;10.98;82.98
77749;BME280;66938;52.084;5.228;2023-04-01T05:19:20;99451.0;;;11.07;82.81
77749;BME280;66938;52.084;5.228;2023-04-01T05:22:32;99453.0;;;11.06;82.83
77749;BME280;66938;52.084;5.228;2023-04-01T05:24:08;99451.0;;;11.1;82.66
77749;BME280;66938;52.084;5.228;2023-04-01T05:25:44;99452.0;;;11.13;82.69
77749;BME280;66938;52.084;5.228;2023-04-01T05:28:56;99468.0;;;11.1;82.75
77749;BME280;66938;52.084;5.228;2023-04-01T05:30:31;99464.0;;;11.08;82.9
77749;BME280;66938;52.084;5.228;2023-04-01T05:32:07;99468.0;;;11.11;82.77
77749;BME280;66938;52.084;5.228;2023-04-01T05:35:20;99475.0;;;11.11;82.74
77749;BME280;66938;52.084;5.228;2023-04-01T05:36:56;99480.0;;;11.13;82.59
77749;BME280;66938;52.084;5.228;2023-04-01T05:38:32;99482.0;;;11.14;82.61
77749;BME280;66938;52.084;5.228;2023-04-01T05:41:45;99485.0;;;11.1;82.67
77749;BME280;66938;52.084;5.228;2023-04-01T05:43:21;99489.0;;;11.09;82.7
77749;BME280;66938;52.084;5.228;2023-04-01T05:44:57;99487.0;;;11.12;82.65
77749;BME280;66938;52.084;5.228;2023-04-01T05:46:33;99492.0;;;11.12;82.66
77749;BME280;66938;52.084;5.228;2023-04-01T05:49:46;99492.0;;;11.17;82.45
77749;BME280;66938;52.084;5.228;2023-04-01T05:51:22;99500.0;;;11.2;82.43
77749;BME280;66938;52.084;5.228;2023-04-01T05:52:59;99501.0;;;11.11;82.62
77749;BME280;66938;52.084;5.228;2023-04-01T05:56:11;99503.0;;;11.1;82.84
77749;BME280;66938;52.084;5.228;2023-04-01T05:57:47;99503.0;;;11.02;82.99
77749;BME280;66938;52.084;5.228;2023-04-01T05:59:23;99503.0;;;11.14;82.78
77749;BME280;66938;52.084;5.228;2023-04-01T06:02:38;99506.0;;;11.11;82.73
77749;BME280;66938;52.084;5.228;2023-04-01T06:04:15;99507.0;;;11.09;82.75
77749;BME280;66938;52.084;5.228;2023-04-01T06:05:52;99509.0;;;11.04;82.82
77749;BME280;66938;52.084;5.228;2023-04-01T06:07:28;99521.0;;;11.08;82.87
77749;BME280;66938;52.084;5.228;2023-04-01T06:10:58;99523.0;;;11.04;82.94
77749;BME280;66938;52.084;5.228;2023-04-01T06:12:47;99527.0;;;11.02;83.04
77749;BME280;66938;52.084;5.228;2023-04-01T06:16:34;99532.0;;;11.02;83.19
77749;BME280;66938;52.084;5.228;2023-04-01T06:18:41;99532.0;;;11.05;83.11
77749;BME280;66938;52.084;5.228;2023-04-01T06:21:08;99539.0;;;11.1;82.96
77749;BME280;66938;52.084;5.228;2023-04-01T06:23:13;99542.0;;;11.05;83.09
77749;BME280;66938;52.084;5.228;2023-04-01T06:25:18;99541.0;;;11.07;83.11
77749;BME280;66938;52.084;5.228;2023-04-01T06:27:16;99547.0;;;11.06;82.9
77749;BME280;66938;52.084;5.228;2023-04-01T06:29:25;99553.0;;;11.04;82.9
77749;BME280;66938;52.084;5.228;2023-04-01T06:31:12;99557.0;;;11.06;82.87
77749;BME280;66938;52.084;5.228;2023-04-01T06:33:06;99561.0;;;11.01;83.06
77749;BME280;66938;52.084;5.228;2023-04-01T06:35:53;99566.0;;;11.0;83.21
77749;BME280;66938;52.084;5.228;2023-04-01T06:38:05;99566.0;;;11.04;83.02
77749;BME280;66938;52.084;5.228;2023-04-01T06:41:21;99580.0;;;10.97;83.3
77749;BME280;66938;52.084;5.228;2023-04-01T06:44:16;99574.0;;;10.96;83.22
77749;BME280;66938;52.084;5.228;2023-04-01T06:46:05;99582.0;;;11.0;83.28
77749;BME280;66938;52.084;5.228;2023-04-01T06:47:55;99586.0;;;10.96;83.07
77749;BME280;66938;52.084;5.228;2023-04-01T06:49:47;99589.0;;;10.93;83.17
77749;BME280;66938;52.084;5.228;2023-04-01T06:51:38;99590.0;;;10.89;83.39
77749;BME280;66938;52.084;5.228;2023-04-01T06:55:24;99596.0;;;10.94;83.21
77749;BME280;66938;52.084;5.228;2023-04-01T06:57:05;99600.0;;;10.94;83.14
77749;BME280;66938;52.084;5.228;2023-04-01T06:58:58;99605.0;;;10.95;83.35
77749;BME280;66938;52.084;5.228;2023-04-01T07:00:40;99603.0;;;10.98;83.2
77749;BME280;66938;52.084;5.228;2023-04-01T07:02:24;99605.0;;;11.03;83.1
77749;BME280;66938;52.084;5.228;2023-04-01T07:04:11;99611.0;;;11.04;83.08
77749;BME280;66938;52.084;5.228;2023-04-01T07:07:33;99614.0;;;11.05;83.02
77749;BME280;66938;52.084;5.228;2023-04-01T07:09:15;99616.0;;;11.06;83.08
77749;BME280;66938;52.084;5.228;2023-04-01T07:10:54;99621.0;;;11.07;83.09
77749;BME280;66938;52.084;5.228;2023-04-01T07:12:40;99625.0;;;11.05;83.29
77749;BME280;66938;52.084;5.228;2023-04-01T07:14:22;99628.0;;;11.09;83.08
77749;BME280;66938;52.084;5.228;2023-04-01T07:17:52;99630.0;;;11.05;82.91
77749;BME280;66938;52.084;5.228;2023-04-01T07:19:36;99635.0;;;11.09;82.85
77749;BME280;66938;52.084;5.228;2023-04-01T07:21:23;99637.0;;;10.97;83.12
77749;BME280;66938;52.084;5.228;2023-04-01T07:23:03;99639.0;;;11.06;82.98
77749;BME280;66938;52.084;5.228;2023-04-01T07:26:22;99642.0;;;11.03;83.09
77749;BME280;66938;52.084;5.228;2023-04-01T07:28:01;99642.0;;;10.95;83.35
77749;BME280;66938;52.084;5.228;2023-04-01T07:29:40;99648.0;;;10.97;83.31
77749;BME280;66938;52.084;5.228;2023-04-01T07:31:25;99655.0;;;10.99;83.44
77749;BME280;66938;52.084;5.228;2023-04-01T07:33:14;99661.0;;;11.0;83.33
77749;BME280;66938;52.084;5.228;2023-04-01T07:36:53;99669.0;;;10.95;83.49
77749;BME280;66938;52.084;5.228;2023-04-01T07:38:40;99666.0;;;11.01;83.52
77749;BME280;66938;52.084;5.228;2023-04-01T07:40:32;99672.0;;;11.04;83.51
77749;BME280;66938;52.084;5.228;2023-04-01T07:42:20;99671.0;;;11.08;83.23
77749;BME280;66938;52.084;5.228;2023-04-01T07:44:08;99677.0;;;11.1;83.2
77749;BME280;66938;52.084;5.228;2023-04-01T07:45:58;99682.0;;;11.12;83.21
77749;BME280;66938;52.084;5.228;2023-04-01T07:49:38;99682.0;;;11.14;83.22
77749;BME280;66938;52.084;5.228;2023-04-01T07:51:24;99686.0;;;11.14;83.16
77749;BME280;66938;52.084;5.228;2023-04-01T07:53:11;99690.0;;;11.15;83.27
77749;BME280;66938;52.084;5.228;2023-04-01T07:54:56;99691.0;;;11.14;83.21
77749;BME280;66938;52.084;5.228;2023-04-01T07:56:42;99695.0;;;11.16;83.05
77749;BME280;66938;52.084;5.228;2023-04-01T07:58:28;99699.0;;;11.13;83.12
77749;BME280;66938;52.084;5.228;2023-04-01T08:02:04;99705.0;;;11.17;83.1
77749;BME280;66938;52.084;5.228;2023-04-01T08:03:57;99703.0;;;11.22;83.07
77749;BME280;66938;52.084;5.228;2023-04-01T08:05:53;99709.0;;;11.22;82.9
77749;BME280;66938;52.084;5.228;2023-04-01T08:07:36;99709.0;;;11.24;82.9
77749;BME280;66938;52.084;5.228;2023-04-01T08:09:22;99714.0;;;11.26;82.72
77749;BME280;66938;52.084;5.228;2023-04-01T08:11:14;99721.0;;;11.27;82.8
77749;BME280;66938;52.084;5.228;2023-04-01T08:13:06;99720.0;;;11.29;82.85
77749;BME280;66938;52.084;5.228;2023-04-01T08:16:35;99723.0;;;11.35;82.86
77749;BME280;66938;52.084;5.228;2023-04-01T08:18:26;99728.0;;;11.38;82.76
77749;BME280;66938;52.084;5.228;2023-04-01T08:20:16;99736.0;;;11.32;82.59
77749;BME280;66938;52.084;5.228;2023-04-01T08:22:02;99736.0;;;11.31;82.58
77749;BME280;66938;52.084;5.228;2023-04-01T08:23:43;99737.0;;;11.32;82.78
77749;BME280;66938;52.084;5.228;2023-04-01T08:27:03;99738.0;;;11.41;82.83
77749;BME280;66938;52.084;5.228;2023-04-01T08:28:50;99741.0;;;11.42;82.79
77749;BME280;66938;52.084;5.228;2023-04-01T08:30:35;99741.0;;;11.43;82.69
77749;BME280;66938;52.084;5.228;2023-04-01T08:32:18;99746.0;;;11.49;82.7
77749;BME280;66938;52.084;5.228;2023-04-01T08:34:01;99755.0;;;11.46;82.77
77749;BME280;66938;52.084;5.228;2023-04-01T08:37:28;99753.0;;;11.49;82.56
77749;BME280;66938;52.084;5.228;2023-04-01T08:39:10;99764.0;;;11.44;82.6
77749;BME280;66938;52.084;5.228;2023-04-01T08:40:56;99768.0;;;11.53;82.44
77749;BME280;66938;52.084;5.228;2023-04-01T08:45:03;99769.0;;;11.5;82.33
77749;BME280;66938;52.084;5.228;2023-04-01T08:47:46;99780.0;;;11.52;82.09
77749;BME280;66938;52.084;5.228;2023-04-01T08:51:26;99781.0;;;11.48;82.2
77749;BME280;66938;52.084;5.228;2023-04-01T08:54:38;99781.0;;;11.52;82.27
77749;BME280;66938;52.084;5.228;2023-04-01T08:57:35;99782.0;;;11.55;81.99
77749;BME280;66938;52.084;5.228;2023-04-01T08:59:40;99785.0;;;11.52;82.1
77749;BME280;66938;52.084;5.228;2023-04-01T09:01:41;99791.0;;;11.54;82.37
77749;BME280;66938;52.084;5.228;2023-04-01T09:04:47;99792.0;;;11.52;82.1
77749;BME280;66938;52.084;5.228;2023-04-01T09:06:40;99793.0;;;11.56;82.08
77749;BME280;66938;52.084;5.228;2023-04-01T09:08:33;99798.0;;;11.51;82.07
77749;BME280;66938;52.084;5.228;2023-04-01T09:10:24;99797.0;;;11.52;81.91
77749;BME280;66938;52.084;5.228;2023-04-01T09:13:17;99801.0;;;11.5;82.15
77749;BME280;66938;52.084;5.228;2023-04-01T09:15:42;99801.0;;;11.57;82.16
77749;BME280;66938;52.084;5.228;2023-04-01T09:19:54;99808.0;;;11.64;82.37
77749;BME280;66938;52.084;5.228;2023-04-01T09:21:51;99810.0;;;11.62;82.14
77749;BME280;66938;52.084;5.228;2023-04-01T09:23:58;99813.0;;;11.65;81.93
77749;BME280;66938;52.084;5.228;2023-04-01T09:26:18;99814.0;;;11.66;82.27
77749;BME280;66938;52.084;5.228;2023-04-01T09:30:32;99818.0;;;11.62;82.26
77749;BME280;66938;52.084;5.228;2023-04-01T09:32:40;99824.0;;;11.67;82.49
77749;BME280;66938;52.084;5.228;2023-04-01T09:36:04;99827.0;;;11.65;82.58
77749;BME280;66938;52.084;5.228;2023-04-01T09:37:52;99831.0;;;11.73;82.33
77749;BME280;66938;52.084;5.228;2023-04-01T09:39:36;99831.0;;;11.78;82.23
77749;BME280;66938;52.084;5.228;2023-04-01T09:41:26;99830.0;;;11.74;82.25
77749;BME280;66938;52.084;5.228;2023-04-01T09:43:22;99832.0;;;11.75;82.41
77749;BME280;66938;52.084;5.228;2023-04-01T09:45:09;99841.0;;;11.8;82.34
77749;BME280;66938;52.084;5.228;2023-04-01T09:49:09;99834.0;;;11.7;82.24
77749;BME280;66938;52.084;5.228;2023-04-01T09:52:20;99840.0;;;11.73;82.45
77749;BME280;66938;52.084;5.228;2023-04-01T09:54:16;99843.0;;;11.72;82.58
77749;BME280;66938;52.084;5.228;2023-04-01T09:57:15;99846.0;;;11.76;82.57
77749;BME280;66938;52.084;5.228;2023-04-01T09:59:24;99847.0;;;11.74;82.46
77749;BME280;66938;52.084;5.228;2023-04-01T10:01:47;99855.0;;;11.79;82.41
77749;BME280;66938;52.084;5.228;2023-04-01T10:06:18;99855.0;;;11.71;82.79
77749;BME280;66938;52.084;5.228;2023-04-01T10:10:30;99859.0;;;11.83;83.27
77749;BME280;66938;52.084;5.228;2023-04-01T10:13:20;99870.0;;;11.88;82.62
77749;BME280;66938;52.084;5.228;2023-04-01T10:20:31;99880.0;;;11.75;81.66
77749;BME280;66938;52.084;5.228;2023-04-01T10:23:45;99874.0;;;11.77;81.3
77749;BME280;66938;52.084;5.228;2023-04-01T10:26:18;99880.0;;;11.83;81.41
77749;BME280;66938;52.084;5.228;2023-04-01T10:29:27;99880.0;;;11.9;81.66
77749;BME280;66938;52.084;5.228;2023-04-01T10:33:09;99883.0;;;11.9;81.83
77749;BME280;66938;52.084;5.228;2023-04-01T10:39:19;99890.0;;;12.03;81.98
77749;BME280;66938;52.084;5.228;2023-04-01T10:46:59;99892.0;;;12.15;81.05
77749;BME280;66938;52.084;5.228;2023-04-01T10:49:37;99899.0;;;12.11;81.39
77749;BME280;66938;52.084;5.228;2023-04-01T10:52:11;99896.0;;;12.1;81.33
77749;BME280;66938;52.084;5.228;2023-04-01T10:56:11;99898.0;;;12.16;81.41
77749;BME280;66938;52.084;5.228;2023-04-01T11:00:46;99905.0;;;12.17;80.91
77749;BME280;66938;52.084;5.228;2023-04-01T11:06:35;99909.0;;;12.23;81.62
77749;BME280;66938;52.084;5.228;2023-04-01T11:07:52;99910.0;;;12.34;81.96
77749;BME280;66938;52.084;5.228;2023-04-01T11:11:11;99906.0;;;12.42;82.02
77749;BME280;66938;52.084;5.228;2023-04-01T11:14:47;99911.0;;;12.53;81.74
77749;BME280;66938;52.084;5.228;2023-04-01T11:17:27;99907.0;;;12.64;81.94
77749;BME280;66938;52.084;5.228;2023-04-01T11:19:59;99913.0;;;12.59;81.03
77749;BME280;66938;52.084;5.228;2023-04-01T11:21:29;99911.0;;;12.73;80.91
77749;BME280;66938;52.084;5.228;2023-04-01T11:22:23;99911.0;;;12.73;80.91
77749;BME280;66938;52.084;5.228;2023-04-01T11:23:21;99911.0;;;12.73;80.91
77749;BME280;66938;52.084;5.228;2023-04-01T11:25:45;99917.0;;;12.82;79.83
77749;BME280;66938;52.084;5.228;2023-04-01T11:27:58;99928.0;;;12.75;79.2
77749;BME280;66938;52.084;5.228;2023-04-01T11:30:21;99928.0;;;12.65;78.98
77749;BME280;66938;52.084;5.228;2023-04-01T11:32:14;99932.0;;;12.68;79.17
77749;BME280;66938;52.084;5.228;2023-04-01T11:33:57;99931.0;;;12.6;79.36
77749;BME280;66938;52.084;5.228;2023-04-01T11:38:11;99941.0;;;12.61;78.75
77749;BME280;66938;52.084;5.228;2023-04-01T11:41:47;99944.0;;;12.65;79.05
77749;BME280;66938;52.084;5.228;2023-04-01T11:43:33;99943.0;;;12.62;79.77
77749;BME280;66938;52.084;5.228;2023-04-01T11:45:21;99951.0;;;12.75;79.11
77749;BME280;66938;52.084;5.228;2023-04-01T11:47:37;99948.0;;;12.87;80.19
77749;BME280;66938;52.084;5.228;2023-04-01T11:49:33;99952.0;;;12.94;80.86
77749;BME280;66938;52.084;5.228;2023-04-01T11:51:50;99955.0;;;13.06;79.44
77749;BME280;66938;52.084;5.228;2023-04-01T11:54:07;99957.0;;;13.11;78.55
77749;BME280;66938;52.084;5.228;2023-04-01T11:55:58;99959.0;;;13.02;77.66
77749;BME280;66938;52.084;5.228;2023-04-01T11:57:58;99956.0;;;13.04;77.66
77749;BME280;66938;52.084;5.228;2023-04-01T11:59:59;99966.0;;;13.04;77.58
77749;BME280;66938;52.084;5.228;2023-04-01T12:01:48;99968.0;;;13.01;77.49
77749;BME280;66938;52.084;5.228;2023-04-01T12:03:43;99972.0;;;13.04;78.38
77749;BME280;66938;52.084;5.228;2023-04-01T12:06:03;99978.0;;;13.12;78.91
77749;BME280;66938;52.084;5.228;2023-04-01T12:07:55;99975.0;;;13.13;78.34
77749;BME280;66938;52.084;5.228;2023-04-01T12:09:46;99980.0;;;13.11;78.55
77749;BME280;66938;52.084;5.228;2023-04-01T12:11:29;99984.0;;;13.12;79.05
77749;BME280;66938;52.084;5.228;2023-04-01T12:15:12;99982.0;;;13.15;78.62